Time;durP1;ratioP1;P1;durP2;ratioP2;P2;SDS_P1;SDS_P2;PMS_P1;PMS_P2;Temp;Humidity;BMP_temperature;BMP_pressure;BME280_temperature;BME280_humidity;BME280_pressure;Samples;Min_cycle;Max_cycle;Signal;HPM_P1;HPM_P2
2021/04/19 00:01:37;;;;;;;22.53;14.73;;;;;;;10.39;55.83;96845.88;5033799;28;20434;-70
2021/04/19 00:04:03;;;;;;;21.60;15.60;;;;;;;10.42;55.36;96835.09;5036188;28;20191;-71
2021/04/19 00:06:29;;;;;;;22.33;14.70;;;;;;;10.07;56.29;96850.03;5035205;28;20183;-70
2021/04/19 00:08:54;;;;;;;23.13;15.57;;;;;;;9.97;56.75;96843.09;5033391;28;20191;-69
2021/04/19 00:11:20;;;;;;;19.00;13.73;;;;;;;9.61;58.46;96845.84;5033141;28;20650;-70
2021/04/19 00:13:46;;;;;;;23.67;15.03;;;;;;;9.94;57.24;96847.81;5033450;28;20211;-70
2021/04/19 00:16:11;;;;;;;22.03;15.10;;;;;;;9.80;56.96;96844.00;5041852;28;20237;-70
2021/04/19 00:18:37;;;;;;;18.93;14.20;;;;;;;9.84;57.68;96847.94;5040415;28;20179;-70
2021/04/19 00:21:03;;;;;;;18.23;14.17;;;;;;;9.92;56.95;96840.13;5033109;28;20179;-69
2021/04/19 00:23:29;;;;;;;22.47;15.53;;;;;;;9.94;56.98;96842.59;5032379;28;20299;-70
2021/04/19 00:25:54;;;;;;;19.50;14.00;;;;;;;9.97;56.68;96843.09;5032139;28;20509;-70
2021/04/19 00:28:20;;;;;;;18.73;13.83;;;;;;;9.83;57.37;96835.81;5032843;28;20740;-70
2021/04/19 00:30:46;;;;;;;23.57;14.80;;;;;;;9.45;58.52;96838.75;5033000;28;20680;-69
2021/04/19 00:33:11;;;;;;;17.83;14.20;;;;;;;9.35;58.45;96841.44;5035814;28;20214;-69
2021/04/19 00:35:37;;;;;;;22.20;15.00;;;;;;;9.68;57.86;96839.06;5033376;28;20186;-69
2021/04/19 00:38:03;;;;;;;24.10;13.50;;;;;;;9.60;58.42;96835.56;5034291;28;20188;-70
2021/04/19 00:40:30;;;;;;;18.60;14.20;;;;;;;9.34;58.93;96834.56;5033805;28;20184;-70
2021/04/19 00:42:56;;;;;;;19.47;14.33;;;;;;;9.41;58.48;96836.59;5041416;28;20513;-70
2021/04/19 00:45:22;;;;;;;21.47;14.57;;;;;;;9.08;60.61;96831.97;5049449;28;20450;-70
2021/04/19 00:47:48;;;;;;;23.77;14.20;;;;;;;9.36;59.16;96823.97;5047675;28;20192;-69
2021/04/19 00:50:20;;;;;;;20.83;15.33;;;;;;;9.03;60.16;96829.78;5031261;28;20509;-69
2021/04/19 00:52:46;;;;;;;21.23;14.97;;;;;;;9.12;59.69;96822.00;5031392;28;20708;-70
2021/04/19 00:55:14;;;;;;;18.20;14.50;;;;;;;8.96;60.61;96826.13;5015167;28;20526;-70
2021/04/19 00:57:40;;;;;;;19.67;14.80;;;;;;;9.17;60.06;96825.00;5032252;28;20451;-69
2021/04/19 01:00:10;;;;;;;23.23;14.83;;;;;;;9.29;59.50;96825.56;5014544;28;20937;-70
2021/04/19 01:02:38;;;;;;;21.00;14.20;;;;;;;9.31;59.69;96816.59;5032301;28;20446;-69
2021/04/19 01:05:07;;;;;;;16.77;13.67;;;;;;;9.35;59.07;96817.91;5032332;28;20450;-69
2021/04/19 01:07:33;;;;;;;21.40;14.47;;;;;;;9.42;58.64;96817.31;5031918;28;20426;-70
2021/04/19 01:09:58;;;;;;;20.60;14.83;;;;;;;9.28;59.16;96816.91;5032113;28;20777;-70
2021/04/19 01:12:24;;;;;;;24.60;16.23;;;;;;;9.33;59.22;96814.63;5032528;28;20619;-70
2021/04/19 01:14:49;;;;;;;21.13;15.00;;;;;;;9.30;59.20;96816.72;5032370;28;20204;-69
2021/04/19 01:17:15;;;;;;;21.20;15.00;;;;;;;9.35;59.22;96819.72;5031877;28;20183;-70
2021/04/19 01:19:41;;;;;;;21.13;14.50;;;;;;;9.20;59.38;96824.66;5032446;28;20176;-69
2021/04/19 01:22:07;;;;;;;20.30;14.87;;;;;;;9.26;59.20;96813.63;5032179;28;20198;-70
2021/04/19 01:24:32;;;;;;;22.57;14.60;;;;;;;9.09;60.07;96817.06;5036775;28;20204;-69
2021/04/19 01:26:58;;;;;;;22.40;16.40;;;;;;;9.33;59.95;96816.44;5042059;28;20537;-70
2021/04/19 01:29:24;;;;;;;22.33;14.93;;;;;;;9.47;58.87;96820.28;5033610;28;20182;-70
2021/04/19 01:31:49;;;;;;;19.63;15.50;;;;;;;9.37;59.52;96815.16;5032075;28;20179;-70
2021/04/19 01:34:15;;;;;;;24.00;16.33;;;;;;;9.61;59.10;96811.84;5030363;28;20294;-70
2021/04/19 01:36:40;;;;;;;18.87;14.37;;;;;;;9.70;58.92;96811.91;5031963;28;20183;-69
2021/04/19 01:39:06;;;;;;;20.17;15.37;;;;;;;9.79;58.45;96810.97;5031381;28;20199;-70
2021/04/19 01:41:31;;;;;;;22.50;16.33;;;;;;;9.86;58.43;96813.78;5031651;28;20180;-70
2021/04/19 01:43:57;;;;;;;21.10;15.40;;;;;;;9.91;57.96;96811.47;5046547;28;20274;-69
2021/04/19 01:46:23;;;;;;;21.40;16.00;;;;;;;9.97;58.19;96809.06;5032299;28;20212;-70
2021/04/19 01:48:49;;;;;;;25.83;16.40;;;;;;;9.81;58.16;96812.44;5032108;28;20180;-70
2021/04/19 01:51:15;;;;;;;25.40;16.47;;;;;;;9.81;58.20;96815.06;5031446;28;20822;-70
2021/04/19 01:53:40;;;;;;;24.87;17.43;;;;;;;9.68;58.40;96812.88;5031184;28;20467;-69
2021/04/19 01:56:06;;;;;;;25.13;16.30;;;;;;;9.54;58.98;96810.84;5031643;28;20238;-70
2021/04/19 01:58:32;;;;;;;23.00;15.47;;;;;;;9.33;59.93;96809.41;5031494;28;20180;-69
2021/04/19 02:00:58;;;;;;;21.40;16.07;;;;;;;9.29;60.55;96802.84;5030991;28;20639;-70
2021/04/19 02:03:42;;;;;;;23.77;16.27;;;;;;;9.31;60.64;96802.69;5031134;28;20662;-70
2021/04/19 02:06:20;;;;;;;24.13;17.50;;;;;;;9.00;61.61;96805.75;5031708;28;20418;-69
2021/04/19 02:09:07;;;;;;;21.57;15.93;;;;;;;8.92;61.82;96803.91;5029848;28;20422;-69
2021/04/19 02:12:06;;;;;;;29.17;18.00;;;;;;;8.95;61.41;96803.56;5029677;28;20419;-68
2021/04/19 02:14:35;;;;;;;23.27;16.70;;;;;;;9.04;61.05;96794.84;4910445;29;20459;-70
2021/04/19 02:17:14;;;;;;;22.90;15.93;;;;;;;9.55;59.81;96795.94;4931933;29;20802;-70
2021/04/19 02:19:58;;;;;;;26.43;17.60;;;;;;;9.33;60.24;96798.94;4916008;29;20518;-70
2021/04/19 02:22:30;;;;;;;29.43;17.30;;;;;;;9.73;59.42;96798.50;4915610;29;20430;-70
2021/04/19 02:25:05;;;;;;;28.33;17.70;;;;;;;9.86;59.37;96793.63;4931090;29;20529;-69
2021/04/19 02:27:37;;;;;;;19.80;15.60;;;;;;;9.98;58.59;96788.94;4930916;29;20441;-71
2021/04/19 02:30:08;;;;;;;25.00;16.87;;;;;;;10.04;58.51;96788.28;4931028;29;20426;-69
2021/04/19 02:32:36;;;;;;;23.90;17.67;;;;;;;10.09;58.14;96782.59;4915389;29;20475;-69
2021/04/19 02:35:07;;;;;;;21.00;16.20;;;;;;;10.10;58.29;96794.69;4930829;29;20479;-68
2021/04/19 02:37:33;;;;;;;23.07;16.50;;;;;;;10.15;58.01;96789.81;4925299;29;20979;-70
2021/04/19 02:40:00;;;;;;;21.57;17.10;;;;;;;10.12;58.25;96795.34;4931831;29;20526;-69
2021/04/19 02:42:27;;;;;;;23.93;16.80;;;;;;;10.13;57.99;96784.75;4919914;29;20976;-70
2021/04/19 02:44:54;;;;;;;23.50;17.20;;;;;;;10.15;57.78;96785.38;4934594;29;20589;-68
2021/04/19 02:47:20;;;;;;;29.20;18.53;;;;;;;9.70;59.79;96786.53;4935581;29;20968;-68
2021/04/19 02:49:46;;;;;;;25.10;18.60;;;;;;;9.84;59.07;96782.50;4938549;28;20434;-69
2021/04/19 02:52:12;;;;;;;24.80;18.77;;;;;;;9.68;59.59;96791.13;5039892;28;20431;-69
2021/04/19 02:54:41;;;;;;;28.23;19.00;;;;;;;9.97;58.84;96785.50;5030715;28;20195;-70
2021/04/19 02:57:27;;;;;;;26.57;19.67;;;;;;;9.58;59.88;96785.19;5034929;28;20430;-70
2021/04/19 02:59:54;;;;;;;30.20;20.93;;;;;;;9.63;59.52;96788.97;5033943;28;20467;-69
2021/04/19 03:02:26;;;;;;;25.43;19.10;;;;;;;9.84;59.35;96790.34;5033605;28;20422;-70
2021/04/19 03:04:52;;;;;;;24.70;19.57;;;;;;;9.62;59.83;96792.56;5034607;28;20473;-70
2021/04/19 03:07:20;;;;;;;29.50;20.63;;;;;;;9.75;59.25;96788.69;5034857;28;20414;-70
2021/04/19 03:09:51;;;;;;;27.00;20.67;;;;;;;9.70;59.74;96788.34;5033994;28;20426;-70
2021/04/19 03:12:17;;;;;;;31.07;21.83;;;;;;;9.70;59.59;96788.34;5033789;28;20545;-70
2021/04/19 03:14:46;;;;;;;30.00;21.20;;;;;;;9.89;59.10;96782.84;5034417;28;20496;-70
2021/04/19 03:17:16;;;;;;;28.77;21.70;;;;;;;9.75;59.05;96788.69;5016251;28;20426;-70
2021/04/19 03:19:48;;;;;;;29.10;22.40;;;;;;;9.78;58.83;96783.16;5034016;28;20420;-69
2021/04/19 03:22:14;;;;;;;34.37;23.70;;;;;;;9.59;59.93;96786.81;5033003;28;20445;-70
2021/04/19 03:24:41;;;;;;;37.43;22.70;;;;;;;9.76;59.76;96779.88;5032781;28;20503;-70
2021/04/19 03:27:08;;;;;;;32.40;22.50;;;;;;;9.92;58.65;96782.56;5033900;28;20430;-69
2021/04/19 03:29:34;;;;;;;30.70;22.57;;;;;;;9.92;58.71;96779.94;5033036;28;20423;-70
2021/04/19 03:32:05;;;;;;;32.67;21.87;;;;;;;9.92;58.59;96782.56;5025852;28;20426;-70
2021/04/19 03:34:33;;;;;;;30.63;21.53;;;;;;;9.75;59.24;96775.59;5034123;28;20450;-70
2021/04/19 03:37:06;;;;;;;31.47;22.60;;;;;;;9.70;59.15;96778.69;5033805;28;20553;-73
2021/04/19 03:39:33;;;;;;;30.63;22.13;;;;;;;9.52;59.94;96778.78;5033381;28;20851;-71
2021/04/19 03:41:59;;;;;;;37.73;22.83;;;;;;;9.61;59.83;96780.44;5033012;28;20423;-69
2021/04/19 03:44:27;;;;;;;36.53;22.63;;;;;;;9.16;60.64;96774.47;5034561;28;20561;-69
2021/04/19 03:46:55;;;;;;;33.47;23.00;;;;;;;9.14;60.92;96781.66;5031932;28;20266;-71
2021/04/19 03:49:32;;;;;;;42.73;28.60;;;;;;;9.39;60.14;96773.97;5031662;28;20419;-69
2021/04/19 03:52:04;;;;;;;42.27;27.57;;;;;;;9.27;60.51;96770.81;5031222;28;20415;-69
2021/04/19 03:54:32;;;;;;;41.50;27.03;;;;;;;9.25;60.43;96775.34;5033866;28;20470;-69
2021/04/19 03:57:03;;;;;;;47.63;28.03;;;;;;;9.37;60.14;96768.09;5029702;28;20418;-69
2021/04/19 03:59:29;;;;;;;44.57;26.50;;;;;;;9.11;60.81;96771.53;5031746;28;20426;-69
2021/04/19 04:01:57;;;;;;;36.53;23.60;;;;;;;9.18;61.05;96775.16;5040657;28;20934;-69
2021/04/19 04:04:23;;;;;;;36.20;24.20;;;;;;;8.85;62.46;96771.50;5031238;28;20681;-69
2021/04/19 04:06:49;;;;;;;37.87;23.40;;;;;;;8.73;62.44;96776.97;5032009;28;20434;-70
2021/04/19 04:09:15;;;;;;;34.17;22.40;;;;;;;9.09;61.95;96772.63;5032170;28;20433;-70
2021/04/19 04:11:42;;;;;;;32.00;22.20;;;;;;;9.22;61.54;96770.44;5032856;28;20945;-69
2021/04/19 04:14:07;;;;;;;33.50;23.70;;;;;;;9.06;61.64;96766.75;5032179;28;20266;-69
2021/04/19 04:16:33;;;;;;;34.23;22.70;;;;;;;9.17;61.58;96759.63;5041728;28;20410;-69
2021/04/19 04:18:59;;;;;;;35.30;22.40;;;;;;;9.23;61.14;96764.22;5033217;28;20661;-69
2021/04/19 04:21:26;;;;;;;38.50;24.10;;;;;;;9.09;61.63;96775.25;5035495;28;20175;-70
2021/04/19 04:23:53;;;;;;;35.53;23.27;;;;;;;9.29;61.20;96776.69;5030324;28;20709;-70
2021/04/19 04:26:19;;;;;;;33.93;23.20;;;;;;;9.40;60.95;96766.94;5032342;28;20881;-70
2021/04/19 04:28:45;;;;;;;36.77;24.07;;;;;;;9.35;60.93;96770.03;5031425;28;20430;-71
2021/04/19 04:31:11;;;;;;;35.83;23.70;;;;;;;9.20;61.52;96773.22;5040332;28;20641;-69
2021/04/19 04:33:36;;;;;;;35.87;23.53;;;;;;;9.18;60.81;96771.72;5035844;28;20558;-69
2021/04/19 04:36:02;;;;;;;41.73;22.50;;;;;;;9.03;61.66;96769.69;5031895;28;20225;-69
2021/04/19 04:38:28;;;;;;;32.90;22.77;;;;;;;8.92;61.58;96762.09;5036746;28;20239;-69
2021/04/19 04:40:53;;;;;;;33.73;22.87;;;;;;;9.18;61.28;96769.13;5032737;28;20908;-69
2021/04/19 04:43:21;;;;;;;36.40;23.63;;;;;;;8.98;61.35;96764.06;5033212;28;20172;-69
2021/04/19 04:45:48;;;;;;;35.33;24.00;;;;;;;8.89;61.94;96773.66;5032840;28;20183;-69
2021/04/19 04:48:23;;;;;;;35.00;24.27;;;;;;;9.03;62.19;96766.22;5032994;28;20429;-70
2021/04/19 04:50:54;;;;;;;29.90;22.33;;;;;;;8.85;62.46;96771.50;5030145;28;20418;-69
2021/04/19 04:53:27;;;;;;;32.43;23.53;;;;;;;8.94;62.27;96773.22;5032556;28;20799;-69
2021/04/19 04:55:54;;;;;;;38.33;24.50;;;;;;;9.05;62.14;96772.97;5031538;28;20415;-70
2021/04/19 04:58:20;;;;;;;36.50;22.90;;;;;;;9.10;61.82;96775.13;5031119;28;20439;-70
2021/04/19 05:00:46;;;;;;;36.83;23.47;;;;;;;9.02;61.64;96781.09;5013526;28;20426;-69
2021/04/19 05:03:14;;;;;;;34.97;22.60;;;;;;;9.10;61.51;96776.88;5031609;28;20429;-68
2021/04/19 05:05:40;;;;;;;32.17;22.63;;;;;;;8.66;62.82;96785.53;5032260;28;20326;-72
2021/04/19 05:08:10;;;;;;;34.47;23.20;;;;;;;8.98;62.16;96779.75;5039447;28;20477;-71
2021/04/19 05:10:35;;;;;;;36.20;22.40;;;;;;;9.29;61.42;96781.94;5032755;28;20234;-71
2021/04/19 05:13:01;;;;;;;36.50;23.20;;;;;;;9.40;61.36;96783.44;5031495;28;20454;-72
2021/04/19 05:15:27;;;;;;;35.37;23.70;;;;;;;9.56;60.67;96779.28;5032047;28;20453;-73
2021/04/19 05:17:52;;;;;;;36.50;23.20;;;;;;;9.48;61.49;96780.91;5031964;28;20271;-70
2021/04/19 05:20:18;;;;;;;32.73;22.93;;;;;;;9.52;61.56;96771.72;5032053;28;20437;-71
2021/04/19 05:22:44;;;;;;;34.60;25.07;;;;;;;9.72;60.66;96781.97;5031834;28;20192;-72
2021/04/19 05:25:10;;;;;;;35.53;23.80;;;;;;;9.51;61.97;96779.75;5039286;28;20203;-73
2021/04/19 05:27:36;;;;;;;40.10;24.53;;;;;;;9.12;63.41;96785.41;5032423;28;20180;-71
2021/04/19 05:30:03;;;;;;;39.93;25.13;;;;;;;9.18;63.35;96787.41;5031620;28;20433;-73
2021/04/19 05:32:29;;;;;;;41.17;27.23;;;;;;;9.24;63.45;96794.63;5032017;28;20697;-70
2021/04/19 05:34:55;;;;;;;48.80;29.17;;;;;;;9.50;63.34;96783.34;5030237;28;20438;-71
2021/04/19 05:37:21;;;;;;;39.17;23.30;;;;;;;9.59;62.33;96785.00;5032272;28;20718;-73
2021/04/19 05:39:48;;;;;;;36.83;24.00;;;;;;;9.09;63.46;96786.53;5030273;28;20418;-72
2021/04/19 05:42:14;;;;;;;41.13;24.03;;;;;;;8.90;64.07;96792.78;5031862;28;20429;-72
2021/04/19 05:44:41;;;;;;;36.30;23.80;;;;;;;9.24;64.11;96799.06;5031855;28;20529;-74
2021/04/19 05:47:08;;;;;;;38.03;23.60;;;;;;;9.07;64.54;96786.69;5030772;28;20426;-70
2021/04/19 05:49:33;;;;;;;40.43;24.87;;;;;;;9.12;64.61;96788.03;5030036;28;20419;-72
2021/04/19 05:52:03;;;;;;;40.23;22.80;;;;;;;9.19;64.40;96791.69;5032416;28;20813;-73
2021/04/19 05:54:29;;;;;;;38.70;26.73;;;;;;;9.00;64.71;96793.50;5030761;28;20200;-72
2021/04/19 05:57:19;;;;;;;36.37;25.90;;;;;;;9.27;64.33;96804.78;5030405;28;20507;-73
2021/04/19 06:00:04;;;;;;;40.13;26.23;;;;;;;9.52;63.98;96803.13;5030190;28;20525;-72
2021/04/19 06:02:43;;;;;;;36.73;25.47;;;;;;;9.72;63.38;96802.91;5032062;28;20880;-72
2021/04/19 06:05:33;;;;;;;33.50;23.17;;;;;;;9.86;63.52;96798.06;5025024;28;20534;-73
2021/04/19 06:07:59;;;;;;;38.13;23.57;;;;;;;9.81;63.19;96803.78;4963448;28;20430;-72
2021/04/19 06:10:37;;;;;;;37.30;25.50;;;;;;;9.43;64.33;96800.66;5038343;28;20425;-75
2021/04/19 06:13:03;;;;;;;40.47;25.37;;;;;;;8.99;66.98;96799.69;5031293;28;20203;-73
2021/04/19 06:15:29;;;;;;;42.17;25.13;;;;;;;9.40;65.68;96803.56;5030433;28;20497;-71
2021/04/19 06:17:56;;;;;;;38.97;25.23;;;;;;;9.38;64.98;96806.34;5030007;28;20427;-74
2021/04/19 06:20:23;;;;;;;37.70;23.83;;;;;;;9.41;64.82;96813.06;5030558;28;20829;-73
2021/04/19 06:22:53;;;;;;;44.90;25.90;;;;;;;9.48;64.99;96807.06;5031666;28;20454;-72
2021/04/19 06:25:20;;;;;;;53.03;26.40;;;;;;;9.42;65.06;96810.28;5040616;28;20447;-72
2021/04/19 06:27:57;;;;;;;49.07;25.80;;;;;;;9.16;66.13;96810.28;5034556;28;20464;-73
2021/04/19 06:30:25;;;;;;;39.97;25.87;;;;;;;9.01;66.69;96815.25;5031496;28;20480;-73
2021/04/19 06:32:51;;;;;;;44.67;26.60;;;;;;;8.60;68.67;96816.53;5030915;28;20516;-73
2021/04/19 06:35:18;;;;;;;42.23;25.27;;;;;;;8.95;68.03;96814.03;5030359;28;20446;-71
2021/04/19 06:37:57;;;;;;;37.53;25.73;;;;;;;8.83;68.91;96812.63;5029233;28;20449;-71
2021/04/19 06:40:25;;;;;;;49.10;27.60;;;;;;;8.64;69.22;96818.84;5028693;28;20899;-73
2021/04/19 06:42:53;;;;;;;48.10;26.27;;;;;;;8.76;68.52;96815.84;5029063;28;20433;-72
2021/04/19 06:45:19;;;;;;;43.80;26.77;;;;;;;8.94;68.13;96808.97;5014494;28;20445;-74
2021/04/19 06:47:44;;;;;;;41.20;25.20;;;;;;;9.15;66.96;96817.28;5032317;28;20940;-72
2021/04/19 06:50:11;;;;;;;40.53;26.53;;;;;;;9.37;66.47;96815.97;5030008;28;20423;-71
2021/04/19 06:52:36;;;;;;;41.70;25.13;;;;;;;9.61;65.77;96813.66;5032368;28;20223;-71
2021/04/19 06:55:03;;;;;;;38.40;27.00;;;;;;;9.74;65.54;96821.91;5032446;28;20438;-70
2021/04/19 06:57:33;;;;;;;36.80;24.83;;;;;;;9.86;65.22;96819.81;5032982;28;20270;-74
2021/04/19 07:00:01;;;;;;;36.13;24.10;;;;;;;9.74;65.59;96815.84;5037109;28;20430;-72
2021/04/19 07:02:27;;;;;;;35.37;24.87;;;;;;;9.91;65.43;96816.72;5033744;28;20445;-72
2021/04/19 07:04:54;;;;;;;35.57;25.00;;;;;;;9.98;65.21;96815.13;5032351;28;20465;-72
2021/04/19 07:07:24;;;;;;;32.93;23.60;;;;;;;9.66;65.36;96819.22;5033487;28;20532;-72
2021/04/19 07:09:51;;;;;;;38.60;23.87;;;;;;;9.85;65.61;96823.41;5032300;28;20426;-72
2021/04/19 07:12:19;;;;;;;38.63;24.40;;;;;;;10.01;65.65;96821.84;5030247;28;20438;-71
2021/04/19 07:14:50;;;;;;;34.17;22.90;;;;;;;10.15;64.96;96823.84;5030789;28;20490;-74
2021/04/19 07:17:16;;;;;;;38.47;23.40;;;;;;;10.21;65.02;96823.19;5031966;28;20427;-72
2021/04/19 07:19:42;;;;;;;32.10;23.00;;;;;;;10.26;64.74;96828.00;5032192;28;20430;-72
2021/04/19 07:22:09;;;;;;;30.83;22.83;;;;;;;10.26;64.17;96831.41;5031607;28;20517;-72
2021/04/19 07:24:35;;;;;;;31.70;21.80;;;;;;;10.22;64.26;96830.09;5030253;28;20602;-72
2021/04/19 07:27:03;;;;;;;33.10;22.50;;;;;;;10.24;64.13;96833.38;5033960;28;20442;-73
2021/04/19 07:29:29;;;;;;;31.70;21.97;;;;;;;10.22;64.40;96830.09;5034157;28;20214;-73
2021/04/19 07:31:56;;;;;;;29.83;21.13;;;;;;;9.96;63.60;96828.34;5034729;28;20827;-73
2021/04/19 07:34:23;;;;;;;37.43;22.70;;;;;;;9.80;64.53;96823.06;5036103;28;20207;-74
2021/04/19 07:36:50;;;;;;;33.47;21.63;;;;;;;9.83;64.46;96823.56;5033951;28;20426;-74
2021/04/19 07:39:18;;;;;;;29.73;20.73;;;;;;;9.87;64.90;96824.06;5034448;28;20429;-74
2021/04/19 07:41:50;;;;;;;31.43;22.77;;;;;;;9.74;64.17;96826.31;5035322;28;20926;-72
2021/04/19 07:44:36;;;;;;;28.17;19.80;;;;;;;9.82;64.55;96818.50;5033817;28;20442;-73
2021/04/19 07:47:27;;;;;;;29.03;20.93;;;;;;;9.93;64.60;96820.00;5034866;28;20418;-73
2021/04/19 07:50:14;;;;;;;32.93;20.87;;;;;;;9.97;64.31;96821.34;5035056;28;20443;-72
2021/04/19 07:52:57;;;;;;;29.90;19.70;;;;;;;10.04;64.27;96818.91;5033450;28;20454;-73
2021/04/19 07:55:44;;;;;;;32.97;20.23;;;;;;;10.06;64.44;96814.34;5034919;28;20457;-74
2021/04/19 07:58:22;;;;;;;26.63;19.83;;;;;;;9.96;64.26;96817.06;5028279;28;20468;-73
2021/04/19 08:00:48;;;;;;;28.30;19.10;;;;;;;10.10;63.91;96820.88;5034356;28;20418;-73
2021/04/19 08:03:16;;;;;;;33.37;21.57;;;;;;;10.14;63.62;96816.97;5016927;28;20883;-74
2021/04/19 08:05:52;;;;;;;27.60;19.63;;;;;;;10.16;63.89;96815.03;5034818;28;20432;-74
2021/04/19 08:08:27;;;;;;;28.70;20.60;;;;;;;10.24;64.38;96816.84;5035030;28;20803;-74
2021/04/19 08:11:05;;;;;;;30.80;19.87;;;;;;;10.20;63.76;96816.34;5034337;28;20429;-73
2021/04/19 08:13:31;;;;;;;30.83;20.73;;;;;;;10.26;64.24;96817.50;5035014;28;20458;-74
2021/04/19 08:16:12;;;;;;;32.60;21.33;;;;;;;10.41;64.47;96809.88;5034179;28;20419;-74
2021/04/19 08:18:39;;;;;;;31.93;20.87;;;;;;;10.42;64.25;96814.94;5033500;28;20180;-72
2021/04/19 08:21:04;;;;;;;33.53;20.00;;;;;;;10.41;64.07;96815.13;5036745;28;20415;-73
2021/04/19 08:23:39;;;;;;;30.70;20.80;;;;;;;10.45;63.77;96808.59;5033594;28;20441;-75
2021/04/19 08:26:05;;;;;;;34.20;20.50;;;;;;;10.59;63.93;96807.13;5034778;28;20266;-73
2021/04/19 08:28:44;;;;;;;33.27;21.60;;;;;;;10.71;63.63;96820.75;5034381;28;20505;-73
2021/04/19 08:31:10;;;;;;;31.93;20.30;;;;;;;10.73;63.27;96814.34;5032239;28;20611;-73
2021/04/19 08:33:36;;;;;;;33.23;21.17;;;;;;;10.65;63.47;96816.13;5033367;28;20458;-73
2021/04/19 08:36:02;;;;;;;29.30;19.57;;;;;;;10.75;63.27;96808.94;5036728;28;20982;-73
2021/04/19 08:38:28;;;;;;;33.90;21.20;;;;;;;10.81;63.63;96818.78;5032607;28;20446;-73
2021/04/19 08:40:55;;;;;;;29.53;19.97;;;;;;;10.73;63.04;96816.13;5032815;28;20533;-73
2021/04/19 08:43:27;;;;;;;30.90;21.17;;;;;;;10.74;63.75;96817.78;5033579;28;20791;-73
2021/04/19 08:45:52;;;;;;;30.80;20.63;;;;;;;10.85;63.31;96814.03;5032650;28;20450;-72
2021/04/19 08:48:18;;;;;;;29.57;19.63;;;;;;;10.83;63.11;96826.47;5032550;28;20433;-73
2021/04/19 08:50:46;;;;;;;30.40;21.50;;;;;;;10.63;63.43;96820.72;5033261;28;20187;-73
2021/04/19 08:53:13;;;;;;;25.80;19.93;;;;;;;10.80;63.26;96826.78;5032898;28;20674;-74
2021/04/19 08:55:44;;;;;;;30.17;20.07;;;;;;;10.87;63.45;96827.78;5035303;28;20937;-73
2021/04/19 08:58:11;;;;;;;34.03;20.10;;;;;;;10.74;63.79;96828.25;5034640;28;20427;-73
2021/04/19 09:00:39;;;;;;;37.53;21.23;;;;;;;10.80;63.41;96830.25;5032619;28;20439;-74
2021/04/19 09:03:05;;;;;;;28.27;19.20;;;;;;;10.87;63.39;96823.34;5033669;28;20927;-72
2021/04/19 09:05:32;;;;;;;37.00;21.90;;;;;;;10.83;63.42;96832.53;5032982;28;20455;-71
2021/04/19 09:08:08;;;;;;;30.57;19.43;;;;;;;10.66;64.47;96836.91;5033180;28;20468;-72
2021/04/19 09:10:47;;;;;;;29.13;20.33;;;;;;;10.78;64.47;96840.06;5032954;28;20422;-72
2021/04/19 09:13:25;;;;;;;30.83;20.30;;;;;;;10.84;63.69;96828.91;5032149;28;20488;-72
2021/04/19 09:15:52;;;;;;;27.90;21.10;;;;;;;10.95;63.46;96835.66;5031960;28;20516;-73
2021/04/19 09:18:20;;;;;;;29.17;20.57;;;;;;;10.96;63.84;96828.63;5032851;28;20604;-72
2021/04/19 09:20:47;;;;;;;32.47;20.70;;;;;;;11.09;63.55;96830.72;5031633;28;20477;-72
2021/04/19 09:23:31;;;;;;;30.57;21.10;;;;;;;10.89;64.68;96831.88;5031446;28;20457;-72
2021/04/19 09:25:58;;;;;;;31.70;15.07;;;;;;;11.43;66.76;96835.78;5014329;28;20544;-67
2021/04/19 09:28:41;;;;;;;20.93;15.93;;;;;;;12.74;60.72;96827.53;5031762;28;20521;-67
2021/04/19 09:31:08;;;;;;;30.47;14.70;;;;;;;13.73;57.02;96828.50;5024873;28;20466;-67
2021/04/19 09:33:34;;;;;;;27.33;14.37;;;;;;;14.24;54.94;96831.16;5031804;28;20549;-67
2021/04/19 09:36:00;;;;;;;19.63;13.70;;;;;;;14.77;53.31;96824.88;5031478;28;20477;-68
2021/04/19 09:38:26;;;;;;;29.53;16.63;;;;;;;14.93;50.83;96836.19;5032691;28;20450;-67
2021/04/19 09:40:56;;;;;;;16.10;12.50;;;;;;;14.86;52.01;96826.41;5031452;28;20195;-68
2021/04/19 09:43:38;;;;;;;25.90;17.53;;;;;;;13.71;52.91;96833.94;5031407;28;20217;-68
2021/04/19 09:46:06;;;;;;;25.33;18.53;;;;;;;13.30;53.79;96835.13;5031214;28;20788;-72
2021/04/19 09:48:31;;;;;;;26.00;18.90;;;;;;;12.77;55.65;96831.63;5032415;28;20429;-71
2021/04/19 09:51:12;;;;;;;29.43;19.13;;;;;;;12.38;57.44;96834.16;5032082;28;20506;-75
2021/04/19 09:53:38;;;;;;;29.57;19.80;;;;;;;12.22;57.88;96836.88;5032818;28;20244;-71
2021/04/19 09:56:04;;;;;;;35.77;19.97;;;;;;;12.11;58.75;96833.63;5033057;28;20418;-72
2021/04/19 09:58:30;;;;;;;32.00;21.27;;;;;;;11.86;60.11;96832.03;5032616;28;20450;-72
2021/04/19 10:00:56;;;;;;;30.47;19.60;;;;;;;11.95;59.56;96831.84;5031489;28;20184;-71
2021/04/19 10:03:22;;;;;;;32.80;21.20;;;;;;;12.04;59.95;96837.94;5032735;28;20180;-71
2021/04/19 10:05:49;;;;;;;32.10;21.03;;;;;;;11.95;60.50;96833.69;5032712;28;20462;-73
2021/04/19 10:08:16;;;;;;;33.40;22.43;;;;;;;11.79;61.28;96826.66;5028035;28;20267;-72
2021/04/19 10:10:42;;;;;;;33.17;20.67;;;;;;;11.95;61.38;96828.44;5030686;28;20427;-73
2021/04/19 10:13:08;;;;;;;36.23;21.90;;;;;;;11.86;61.81;96834.66;5030236;28;20544;-73
2021/04/19 10:15:33;;;;;;;32.37;22.80;;;;;;;11.95;61.67;96836.31;5034784;28;20450;-72
2021/04/19 10:18:10;;;;;;;35.47;22.40;;;;;;;11.19;63.68;96832.22;5033087;28;20188;-73
2021/04/19 10:20:37;;;;;;;34.57;22.20;;;;;;;10.63;65.47;96839.06;5029619;28;20183;-72
2021/04/19 10:23:13;;;;;;;34.13;23.80;;;;;;;10.99;65.22;96841.38;5031218;28;20434;-72
2021/04/19 10:25:51;;;;;;;34.80;24.70;;;;;;;10.54;66.11;96835.59;5013619;28;20478;-71
2021/04/19 10:28:32;;;;;;;35.47;23.70;;;;;;;10.78;64.96;96839.22;5034968;28;20476;-73
2021/04/19 10:31:08;;;;;;;31.70;22.30;;;;;;;9.86;67.73;96830.28;5031888;28;20430;-72
2021/04/19 10:33:34;;;;;;;38.53;23.03;;;;;;;9.97;66.39;96837.03;5032101;28;20524;-72
2021/04/19 10:36:10;;;;;;;40.13;25.10;;;;;;;10.45;66.29;96840.03;5031882;28;20410;-71
2021/04/19 10:38:36;;;;;;;39.97;24.10;;;;;;;10.22;66.95;96835.31;5030837;28;20967;-73
2021/04/19 10:41:01;;;;;;;37.40;24.70;;;;;;;10.72;65.76;96835.44;5031649;28;20525;-73
2021/04/19 10:43:27;;;;;;;40.90;24.27;;;;;;;10.08;67.16;96838.56;5029814;28;20199;-72
2021/04/19 10:45:52;;;;;;;37.83;23.93;;;;;;;10.06;66.88;96832.66;5030671;28;20207;-72
2021/04/19 10:48:20;;;;;;;37.23;25.13;;;;;;;10.06;67.35;96835.28;5031915;28;20234;-74
2021/04/19 10:50:50;;;;;;;33.93;24.43;;;;;;;10.25;66.46;96835.00;5030405;28;20191;-74
2021/04/19 10:53:37;;;;;;;35.37;25.17;;;;;;;10.30;67.65;96829.28;5031490;28;20468;-73
2021/04/19 10:56:03;;;;;;;38.07;24.73;;;;;;;10.45;67.22;96824.31;5031479;28;20546;-73
2021/04/19 10:58:30;;;;;;;34.07;23.30;;;;;;;10.39;66.74;96824.94;5024273;28;20425;-72
2021/04/19 11:00:57;;;;;;;34.00;22.87;;;;;;;10.43;66.84;96821.81;5031641;28;20426;-72
2021/04/19 11:03:23;;;;;;;36.97;22.30;;;;;;;10.85;66.12;96817.44;5036820;28;20433;-73
2021/04/19 11:05:48;;;;;;;34.70;23.30;;;;;;;11.19;65.26;96823.50;5033149;28;20788;-74
2021/04/19 11:08:14;;;;;;;33.17;24.23;;;;;;;10.87;65.82;96818.09;5034776;28;20194;-73
2021/04/19 11:10:40;;;;;;;34.60;23.40;;;;;;;10.82;64.82;96820.41;5034403;28;20625;-74
2021/04/19 11:13:08;;;;;;;36.67;24.60;;;;;;;10.75;65.55;96822.03;5031164;28;20212;-74
2021/04/19 11:15:35;;;;;;;33.90;22.00;;;;;;;10.98;64.95;96813.50;5030855;28;20223;-73
2021/04/19 11:18:23;;;;;;;36.83;22.27;;;;;;;11.06;64.17;96819.56;5037644;28;20834;-72
2021/04/19 11:20:50;;;;;;;40.53;22.70;;;;;;;10.90;65.15;96820.41;5039572;28;20486;-72
2021/04/19 11:23:42;;;;;;;31.90;21.17;;;;;;;9.81;67.17;96815.06;5033081;28;20533;-72
2021/04/19 11:26:10;;;;;;;31.17;20.87;;;;;;;10.38;65.63;96810.19;5032109;28;20496;-71
2021/04/19 11:28:43;;;;;;;31.97;20.90;;;;;;;10.24;65.09;96809.78;5034344;28;20418;-71
2021/04/19 11:31:19;;;;;;;28.23;20.90;;;;;;;10.10;66.24;96815.66;5033109;28;20484;-71